sensor_id;sensor_type;location;lat;lon;timestamp;P1;durP1;ratioP1;P2;durP2;ratioP2
1577;SDS011;57623;53.608;10.004;2023-02-07T00:01:40;12.40;;;11.20;;
1577;SDS011;57623;53.608;10.004;2023-02-07T00:04:10;14.17;;;12.27;;
1577;SDS011;57623;53.608;10.004;2023-02-07T00:06:52;16.00;;;13.00;;
1577;SDS011;57623;53.608;10.004;2023-02-07T00:09:21;13.97;;;12.57;;
1577;SDS011;57623;53.608;10.004;2023-02-07T00:11:53;16.80;;;13.10;;
1577;SDS011;57623;53.608;10.004;2023-02-07T00:14:24;13.43;;;12.03;;
1577;SDS011;57623;53.608;10.004;2023-02-07T00:16:55;15.10;;;12.13;;
1577;SDS011;57623;53.608;10.004;2023-02-07T00:19:23;13.33;;;11.93;;
1577;SDS011;57623;53.608;10.004;2023-02-07T00:21:52;13.87;;;12.10;;
1577;SDS011;57623;53.608;10.004;2023-02-07T00:24:22;15.30;;;13.17;;
1577;SDS011;57623;53.608;10.004;2023-02-07T00:26:50;14.43;;;12.30;;
1577;SDS011;57623;53.608;10.004;2023-02-07T00:29:18;15.37;;;12.73;;
1577;SDS011;57623;53.608;10.004;2023-02-07T00:31:49;13.67;;;12.23;;
1577;SDS011;57623;53.608;10.004;2023-02-07T00:34:28;14.27;;;12.73;;
1577;SDS011;57623;53.608;10.004;2023-02-07T00:36:56;16.57;;;12.83;;
1577;SDS011;57623;53.608;10.004;2023-02-07T00:39:35;16.13;;;12.63;;
1577;SDS011;57623;53.608;10.004;2023-02-07T00:42:05;18.13;;;12.83;;
1577;SDS011;57623;53.608;10.004;2023-02-07T00:44:35;15.93;;;12.97;;
1577;SDS011;57623;53.608;10.004;2023-02-07T00:47:18;15.60;;;12.67;;
1577;SDS011;57623;53.608;10.004;2023-02-07T00:49:55;13.87;;;12.30;;
1577;SDS011;57623;53.608;10.004;2023-02-07T00:52:23;15.17;;;12.40;;
1577;SDS011;57623;53.608;10.004;2023-02-07T00:54:53;16.73;;;12.90;;
1577;SDS011;57623;53.608;10.004;2023-02-07T00:57:21;15.43;;;12.93;;
1577;SDS011;57623;53.608;10.004;2023-02-07T00:59:53;14.13;;;12.63;;
1577;SDS011;57623;53.608;10.004;2023-02-07T01:02:28;15.40;;;12.77;;
1577;SDS011;57623;53.608;10.004;2023-02-07T01:04:59;14.93;;;13.33;;
1577;SDS011;57623;53.608;10.004;2023-02-07T01:07:29;14.67;;;13.17;;
1577;SDS011;57623;53.608;10.004;2023-02-07T01:10:02;15.73;;;12.90;;
1577;SDS011;57623;53.608;10.004;2023-02-07T01:12:34;15.07;;;12.80;;
1577;SDS011;57623;53.608;10.004;2023-02-07T01:15:04;14.73;;;12.80;;
1577;SDS011;57623;53.608;10.004;2023-02-07T01:17:38;14.87;;;12.87;;
1577;SDS011;57623;53.608;10.004;2023-02-07T01:20:21;14.40;;;12.90;;
1577;SDS011;57623;53.608;10.004;2023-02-07T01:22:54;15.40;;;12.73;;
1577;SDS011;57623;53.608;10.004;2023-02-07T01:25:24;17.60;;;13.30;;
1577;SDS011;57623;53.608;10.004;2023-02-07T01:27:55;15.27;;;12.90;;
1577;SDS011;57623;53.608;10.004;2023-02-07T01:30:27;14.30;;;12.80;;
1577;SDS011;57623;53.608;10.004;2023-02-07T01:32:57;17.47;;;13.50;;
1577;SDS011;57623;53.608;10.004;2023-02-07T01:35:26;16.23;;;14.30;;
1577;SDS011;57623;53.608;10.004;2023-02-07T01:37:58;14.90;;;13.30;;
1577;SDS011;57623;53.608;10.004;2023-02-07T01:40:29;15.57;;;13.93;;
1577;SDS011;57623;53.608;10.004;2023-02-07T01:43:06;14.80;;;13.20;;
1577;SDS011;57623;53.608;10.004;2023-02-07T01:45:40;16.20;;;13.80;;
1577;SDS011;57623;53.608;10.004;2023-02-07T01:48:12;17.20;;;14.63;;
1577;SDS011;57623;53.608;10.004;2023-02-07T01:50:46;18.83;;;14.40;;
1577;SDS011;57623;53.608;10.004;2023-02-07T01:53:26;16.93;;;14.63;;
1577;SDS011;57623;53.608;10.004;2023-02-07T01:55:58;17.60;;;14.80;;
1577;SDS011;57623;53.608;10.004;2023-02-07T01:58:30;14.30;;;12.80;;
1577;SDS011;57623;53.608;10.004;2023-02-07T02:01:12;18.13;;;16.17;;
1577;SDS011;57623;53.608;10.004;2023-02-07T02:03:51;18.87;;;14.43;;
1577;SDS011;57623;53.608;10.004;2023-02-07T02:06:26;15.40;;;13.33;;
1577;SDS011;57623;53.608;10.004;2023-02-07T02:09:06;14.50;;;13.00;;
1577;SDS011;57623;53.608;10.004;2023-02-07T02:14:42;14.77;;;13.10;;
1577;SDS011;57623;53.608;10.004;2023-02-07T02:17:26;16.00;;;13.83;;
1577;SDS011;57623;53.608;10.004;2023-02-07T02:23:09;16.17;;;14.00;;
1577;SDS011;57623;53.608;10.004;2023-02-07T02:26:08;13.87;;;12.40;;
1577;SDS011;57623;53.608;10.004;2023-02-07T02:32:06;17.37;;;13.87;;
1577;SDS011;57623;53.608;10.004;2023-02-07T02:35:03;17.40;;;14.00;;
1577;SDS011;57623;53.608;10.004;2023-02-07T02:37:44;16.70;;;13.40;;
1577;SDS011;57623;53.608;10.004;2023-02-07T02:40:21;14.23;;;12.73;;
1577;SDS011;57623;53.608;10.004;2023-02-07T02:42:57;16.57;;;13.80;;
1577;SDS011;57623;53.608;10.004;2023-02-07T02:45:32;15.17;;;13.57;;
1577;SDS011;57623;53.608;10.004;2023-02-07T02:48:05;15.93;;;12.93;;
1577;SDS011;57623;53.608;10.004;2023-02-07T02:50:38;16.70;;;13.50;;
1577;SDS011;57623;53.608;10.004;2023-02-07T02:53:11;14.80;;;13.20;;
1577;SDS011;57623;53.608;10.004;2023-02-07T02:55:47;15.20;;;13.60;;
1577;SDS011;57623;53.608;10.004;2023-02-07T02:58:39;19.43;;;14.73;;
1577;SDS011;57623;53.608;10.004;2023-02-07T03:01:41;17.37;;;12.67;;
1577;SDS011;57623;53.608;10.004;2023-02-07T03:04:25;17.73;;;13.40;;
1577;SDS011;57623;53.608;10.004;2023-02-07T03:07:04;16.60;;;13.83;;
1577;SDS011;57623;53.608;10.004;2023-02-07T03:09:53;17.73;;;13.37;;
1577;SDS011;57623;53.608;10.004;2023-02-07T03:12:31;16.40;;;13.60;;
1577;SDS011;57623;53.608;10.004;2023-02-07T03:15:09;16.73;;;13.77;;
1577;SDS011;57623;53.608;10.004;2023-02-07T03:17:46;16.07;;;13.63;;
1577;SDS011;57623;53.608;10.004;2023-02-07T03:20:21;16.37;;;14.00;;
1577;SDS011;57623;53.608;10.004;2023-02-07T03:22:59;18.33;;;13.60;;
1577;SDS011;57623;53.608;10.004;2023-02-07T03:25:28;17.90;;;14.30;;
1577;SDS011;57623;53.608;10.004;2023-02-07T03:27:58;15.30;;;13.00;;
1577;SDS011;57623;53.608;10.004;2023-02-07T03:30:30;15.00;;;12.60;;
1577;SDS011;57623;53.608;10.004;2023-02-07T03:33:06;16.10;;;13.00;;
1577;SDS011;57623;53.608;10.004;2023-02-07T03:35:41;14.93;;;12.73;;
1577;SDS011;57623;53.608;10.004;2023-02-07T03:38:17;16.10;;;13.40;;
1577;SDS011;57623;53.608;10.004;2023-02-07T03:40:50;14.57;;;12.63;;
1577;SDS011;57623;53.608;10.004;2023-02-07T03:43:28;15.30;;;13.27;;
1577;SDS011;57623;53.608;10.004;2023-02-07T03:46:06;13.40;;;12.00;;
1577;SDS011;57623;53.608;10.004;2023-02-07T03:48:35;14.20;;;12.30;;
1577;SDS011;57623;53.608;10.004;2023-02-07T03:51:04;15.83;;;14.10;;
1577;SDS011;57623;53.608;10.004;2023-02-07T03:53:34;16.50;;;14.73;;
1577;SDS011;57623;53.608;10.004;2023-02-07T03:56:02;17.50;;;14.17;;
1577;SDS011;57623;53.608;10.004;2023-02-07T03:58:31;14.73;;;12.60;;
1577;SDS011;57623;53.608;10.004;2023-02-07T04:00:59;19.37;;;14.63;;
1577;SDS011;57623;53.608;10.004;2023-02-07T04:03:28;16.67;;;13.03;;
1577;SDS011;57623;53.608;10.004;2023-02-07T04:05:56;15.10;;;12.70;;
1577;SDS011;57623;53.608;10.004;2023-02-07T04:08:24;17.37;;;13.17;;
1577;SDS011;57623;53.608;10.004;2023-02-07T04:10:58;14.00;;;12.10;;
1577;SDS011;57623;53.608;10.004;2023-02-07T04:13:27;14.33;;;12.47;;
1577;SDS011;57623;53.608;10.004;2023-02-07T04:15:55;14.50;;;12.30;;
1577;SDS011;57623;53.608;10.004;2023-02-07T04:18:24;14.43;;;12.60;;
1577;SDS011;57623;53.608;10.004;2023-02-07T04:20:58;14.00;;;12.50;;
1577;SDS011;57623;53.608;10.004;2023-02-07T04:23:30;14.67;;;12.93;;
1577;SDS011;57623;53.608;10.004;2023-02-07T04:26:01;17.37;;;12.13;;
1577;SDS011;57623;53.608;10.004;2023-02-07T04:28:29;15.40;;;12.73;;
1577;SDS011;57623;53.608;10.004;2023-02-07T04:30:58;17.70;;;12.90;;
1577;SDS011;57623;53.608;10.004;2023-02-07T04:33:34;14.60;;;13.10;;
1577;SDS011;57623;53.608;10.004;2023-02-07T04:36:03;18.80;;;12.90;;
1577;SDS011;57623;53.608;10.004;2023-02-07T04:38:32;14.73;;;12.97;;
1577;SDS011;57623;53.608;10.004;2023-02-07T04:41:03;17.70;;;13.23;;
1577;SDS011;57623;53.608;10.004;2023-02-07T04:43:33;14.40;;;12.70;;
1577;SDS011;57623;53.608;10.004;2023-02-07T04:46:06;15.23;;;13.57;;
1577;SDS011;57623;53.608;10.004;2023-02-07T04:48:35;14.70;;;12.40;;
1577;SDS011;57623;53.608;10.004;2023-02-07T04:51:08;16.40;;;13.40;;
1577;SDS011;57623;53.608;10.004;2023-02-07T04:53:40;16.40;;;12.43;;
1577;SDS011;57623;53.608;10.004;2023-02-07T04:56:10;14.37;;;12.63;;
1577;SDS011;57623;53.608;10.004;2023-02-07T04:58:39;15.30;;;12.40;;
1577;SDS011;57623;53.608;10.004;2023-02-07T05:01:07;14.83;;;13.17;;
1577;SDS011;57623;53.608;10.004;2023-02-07T05:03:36;15.43;;;13.03;;
1577;SDS011;57623;53.608;10.004;2023-02-07T05:06:05;18.07;;;12.90;;
1577;SDS011;57623;53.608;10.004;2023-02-07T05:08:34;12.53;;;11.20;;
1577;SDS011;57623;53.608;10.004;2023-02-07T05:11:04;15.07;;;12.97;;
1577;SDS011;57623;53.608;10.004;2023-02-07T05:13:34;16.23;;;13.23;;
1577;SDS011;57623;53.608;10.004;2023-02-07T05:16:03;15.77;;;13.30;;
1577;SDS011;57623;53.608;10.004;2023-02-07T05:18:35;15.90;;;13.00;;
1577;SDS011;57623;53.608;10.004;2023-02-07T05:21:04;14.73;;;12.20;;
1577;SDS011;57623;53.608;10.004;2023-02-07T05:23:35;15.00;;;12.80;;
1577;SDS011;57623;53.608;10.004;2023-02-07T05:26:15;16.80;;;11.60;;
1577;SDS011;57623;53.608;10.004;2023-02-07T05:28:52;14.90;;;11.97;;
1577;SDS011;57623;53.608;10.004;2023-02-07T05:31:30;17.20;;;13.13;;
1577;SDS011;57623;53.608;10.004;2023-02-07T05:34:29;14.70;;;12.90;;
1577;SDS011;57623;53.608;10.004;2023-02-07T05:37:04;13.60;;;12.13;;
1577;SDS011;57623;53.608;10.004;2023-02-07T05:39:32;16.70;;;12.37;;
1577;SDS011;57623;53.608;10.004;2023-02-07T05:42:03;15.87;;;13.90;;
1577;SDS011;57623;53.608;10.004;2023-02-07T05:44:40;15.23;;;12.20;;
1577;SDS011;57623;53.608;10.004;2023-02-07T05:47:10;15.40;;;12.73;;
1577;SDS011;57623;53.608;10.004;2023-02-07T05:49:41;16.50;;;13.57;;
1577;SDS011;57623;53.608;10.004;2023-02-07T05:52:11;14.23;;;11.97;;
1577;SDS011;57623;53.608;10.004;2023-02-07T05:54:41;13.87;;;12.47;;
1577;SDS011;57623;53.608;10.004;2023-02-07T05:57:15;17.07;;;13.20;;
1577;SDS011;57623;53.608;10.004;2023-02-07T05:59:48;15.70;;;12.90;;
1577;SDS011;57623;53.608;10.004;2023-02-07T06:02:18;16.50;;;13.63;;
1577;SDS011;57623;53.608;10.004;2023-02-07T06:04:51;13.90;;;12.40;;
1577;SDS011;57623;53.608;10.004;2023-02-07T06:07:22;16.03;;;12.50;;
1577;SDS011;57623;53.608;10.004;2023-02-07T06:09:51;16.50;;;12.60;;
1577;SDS011;57623;53.608;10.004;2023-02-07T06:12:19;14.30;;;12.63;;
1577;SDS011;57623;53.608;10.004;2023-02-07T06:14:50;14.30;;;12.30;;
1577;SDS011;57623;53.608;10.004;2023-02-07T06:17:20;14.73;;;12.10;;
1577;SDS011;57623;53.608;10.004;2023-02-07T06:19:52;15.30;;;13.50;;
1577;SDS011;57623;53.608;10.004;2023-02-07T06:22:27;15.83;;;12.83;;
1577;SDS011;57623;53.608;10.004;2023-02-07T06:24:56;16.23;;;13.13;;
1577;SDS011;57623;53.608;10.004;2023-02-07T06:27:24;16.00;;;13.43;;
1577;SDS011;57623;53.608;10.004;2023-02-07T06:29:53;16.00;;;12.63;;
1577;SDS011;57623;53.608;10.004;2023-02-07T06:32:21;16.17;;;14.43;;
1577;SDS011;57623;53.608;10.004;2023-02-07T06:34:49;14.17;;;12.67;;
1577;SDS011;57623;53.608;10.004;2023-02-07T06:37:17;14.60;;;11.60;;
1577;SDS011;57623;53.608;10.004;2023-02-07T06:39:48;16.80;;;13.13;;
1577;SDS011;57623;53.608;10.004;2023-02-07T06:42:19;16.87;;;12.80;;
1577;SDS011;57623;53.608;10.004;2023-02-07T06:44:47;14.57;;;12.00;;
1577;SDS011;57623;53.608;10.004;2023-02-07T06:47:16;15.50;;;12.83;;
1577;SDS011;57623;53.608;10.004;2023-02-07T06:49:45;15.33;;;12.83;;
1577;SDS011;57623;53.608;10.004;2023-02-07T06:52:17;16.00;;;12.67;;
1577;SDS011;57623;53.608;10.004;2023-02-07T06:54:47;17.63;;;12.10;;
1577;SDS011;57623;53.608;10.004;2023-02-07T06:57:15;15.40;;;12.63;;
1577;SDS011;57623;53.608;10.004;2023-02-07T06:59:43;16.47;;;12.80;;
1577;SDS011;57623;53.608;10.004;2023-02-07T07:02:11;16.23;;;12.67;;
1577;SDS011;57623;53.608;10.004;2023-02-07T07:04:40;15.23;;;13.63;;
1577;SDS011;57623;53.608;10.004;2023-02-07T07:07:08;16.60;;;12.90;;
1577;SDS011;57623;53.608;10.004;2023-02-07T07:09:36;16.90;;;12.80;;
1577;SDS011;57623;53.608;10.004;2023-02-07T07:12:04;17.17;;;13.33;;
1577;SDS011;57623;53.608;10.004;2023-02-07T07:14:33;17.93;;;13.53;;
1577;SDS011;57623;53.608;10.004;2023-02-07T07:17:01;18.87;;;14.77;;
1577;SDS011;57623;53.608;10.004;2023-02-07T07:19:29;19.70;;;14.53;;
1577;SDS011;57623;53.608;10.004;2023-02-07T07:22:00;20.20;;;14.87;;
1577;SDS011;57623;53.608;10.004;2023-02-07T07:24:28;19.00;;;14.93;;
1577;SDS011;57623;53.608;10.004;2023-02-07T07:26:56;18.80;;;14.20;;
1577;SDS011;57623;53.608;10.004;2023-02-07T07:29:26;22.73;;;14.00;;
1577;SDS011;57623;53.608;10.004;2023-02-07T07:31:54;17.83;;;14.00;;
1577;SDS011;57623;53.608;10.004;2023-02-07T07:34:22;17.13;;;13.70;;
1577;SDS011;57623;53.608;10.004;2023-02-07T07:36:50;19.70;;;14.73;;
1577;SDS011;57623;53.608;10.004;2023-02-07T07:39:20;17.50;;;14.00;;
1577;SDS011;57623;53.608;10.004;2023-02-07T07:41:48;19.33;;;14.53;;
1577;SDS011;57623;53.608;10.004;2023-02-07T07:44:16;18.80;;;13.67;;
1577;SDS011;57623;53.608;10.004;2023-02-07T07:46:44;17.83;;;14.60;;
1577;SDS011;57623;53.608;10.004;2023-02-07T07:49:12;17.90;;;15.10;;
1577;SDS011;57623;53.608;10.004;2023-02-07T07:51:41;18.00;;;14.27;;
1577;SDS011;57623;53.608;10.004;2023-02-07T07:54:09;19.93;;;14.47;;
1577;SDS011;57623;53.608;10.004;2023-02-07T07:56:39;21.07;;;14.33;;
1577;SDS011;57623;53.608;10.004;2023-02-07T07:59:07;18.70;;;13.50;;
1577;SDS011;57623;53.608;10.004;2023-02-07T08:01:48;18.80;;;14.30;;
1577;SDS011;57623;53.608;10.004;2023-02-07T08:04:17;19.20;;;14.53;;
1577;SDS011;57623;53.608;10.004;2023-02-07T08:06:45;18.07;;;14.60;;
1577;SDS011;57623;53.608;10.004;2023-02-07T08:09:13;18.67;;;13.90;;
1577;SDS011;57623;53.608;10.004;2023-02-07T08:11:44;18.07;;;14.50;;
1577;SDS011;57623;53.608;10.004;2023-02-07T08:14:12;17.80;;;14.07;;
1577;SDS011;57623;53.608;10.004;2023-02-07T08:16:40;18.90;;;14.27;;
1577;SDS011;57623;53.608;10.004;2023-02-07T08:19:08;18.40;;;14.10;;
1577;SDS011;57623;53.608;10.004;2023-02-07T08:21:36;18.83;;;14.40;;
1577;SDS011;57623;53.608;10.004;2023-02-07T08:24:04;18.87;;;14.57;;
1577;SDS011;57623;53.608;10.004;2023-02-07T08:26:32;24.73;;;15.60;;
1577;SDS011;57623;53.608;10.004;2023-02-07T08:29:01;20.67;;;14.53;;
1577;SDS011;57623;53.608;10.004;2023-02-07T08:31:29;19.20;;;15.83;;
1577;SDS011;57623;53.608;10.004;2023-02-07T08:34:00;20.57;;;14.43;;
1577;SDS011;57623;53.608;10.004;2023-02-07T08:36:28;16.90;;;14.03;;
1577;SDS011;57623;53.608;10.004;2023-02-07T08:38:56;20.53;;;15.40;;
1577;SDS011;57623;53.608;10.004;2023-02-07T08:41:24;22.17;;;16.30;;
1577;SDS011;57623;53.608;10.004;2023-02-07T08:43:52;20.03;;;15.37;;
1577;SDS011;57623;53.608;10.004;2023-02-07T08:46:21;21.13;;;15.20;;
1577;SDS011;57623;53.608;10.004;2023-02-07T08:48:49;23.73;;;16.50;;
1577;SDS011;57623;53.608;10.004;2023-02-07T08:51:17;20.90;;;16.40;;
1577;SDS011;57623;53.608;10.004;2023-02-07T08:53:45;18.67;;;15.57;;
1577;SDS011;57623;53.608;10.004;2023-02-07T08:56:13;23.17;;;17.07;;
1577;SDS011;57623;53.608;10.004;2023-02-07T08:58:41;28.27;;;19.10;;
1577;SDS011;57623;53.608;10.004;2023-02-07T09:01:10;26.53;;;18.90;;
1577;SDS011;57623;53.608;10.004;2023-02-07T09:03:40;21.97;;;16.20;;
1577;SDS011;57623;53.608;10.004;2023-02-07T09:06:08;25.03;;;17.67;;
1577;SDS011;57623;53.608;10.004;2023-02-07T09:08:37;25.83;;;16.50;;
1577;SDS011;57623;53.608;10.004;2023-02-07T09:11:05;21.40;;;17.07;;
1577;SDS011;57623;53.608;10.004;2023-02-07T09:13:36;22.10;;;15.73;;
1577;SDS011;57623;53.608;10.004;2023-02-07T09:16:04;24.00;;;17.97;;
1577;SDS011;57623;53.608;10.004;2023-02-07T09:18:34;22.70;;;15.97;;
1577;SDS011;57623;53.608;10.004;2023-02-07T09:21:03;22.50;;;16.50;;
1577;SDS011;57623;53.608;10.004;2023-02-07T09:23:32;22.93;;;16.67;;
1577;SDS011;57623;53.608;10.004;2023-02-07T09:26:02;21.40;;;16.50;;
1577;SDS011;57623;53.608;10.004;2023-02-07T09:28:32;23.50;;;16.60;;
1577;SDS011;57623;53.608;10.004;2023-02-07T09:31:07;21.23;;;16.10;;
1577;SDS011;57623;53.608;10.004;2023-02-07T09:33:36;19.50;;;15.60;;
1577;SDS011;57623;53.608;10.004;2023-02-07T09:36:16;19.50;;;15.00;;
1577;SDS011;57623;53.608;10.004;2023-02-07T09:38:45;22.20;;;15.70;;
1577;SDS011;57623;53.608;10.004;2023-02-07T09:41:19;20.63;;;15.57;;
1577;SDS011;57623;53.608;10.004;2023-02-07T09:44:00;24.47;;;15.77;;
1577;SDS011;57623;53.608;10.004;2023-02-07T09:46:34;21.90;;;15.50;;
1577;SDS011;57623;53.608;10.004;2023-02-07T09:49:05;19.50;;;14.73;;
1577;SDS011;57623;53.608;10.004;2023-02-07T09:51:42;20.80;;;15.17;;
1577;SDS011;57623;53.608;10.004;2023-02-07T09:54:17;22.70;;;16.23;;
1577;SDS011;57623;53.608;10.004;2023-02-07T09:56:50;22.07;;;14.80;;
1577;SDS011;57623;53.608;10.004;2023-02-07T09:59:22;20.40;;;16.03;;
1577;SDS011;57623;53.608;10.004;2023-02-07T10:01:56;22.40;;;16.70;;
1577;SDS011;57623;53.608;10.004;2023-02-07T10:04:29;22.20;;;16.47;;
1577;SDS011;57623;53.608;10.004;2023-02-07T10:07:03;23.00;;;16.53;;
1577;SDS011;57623;53.608;10.004;2023-02-07T10:09:37;22.03;;;15.63;;
1577;SDS011;57623;53.608;10.004;2023-02-07T10:12:12;23.27;;;17.03;;
1577;SDS011;57623;53.608;10.004;2023-02-07T10:14:57;22.30;;;16.33;;
1577;SDS011;57623;53.608;10.004;2023-02-07T10:17:39;22.20;;;15.70;;
1577;SDS011;57623;53.608;10.004;2023-02-07T10:20:22;23.90;;;16.90;;
1577;SDS011;57623;53.608;10.004;2023-02-07T10:23:00;22.17;;;15.80;;
1577;SDS011;57623;53.608;10.004;2023-02-07T10:25:38;21.77;;;15.33;;
1577;SDS011;57623;53.608;10.004;2023-02-07T10:28:24;20.93;;;15.57;;
1577;SDS011;57623;53.608;10.004;2023-02-07T10:31:11;21.93;;;15.63;;
1577;SDS011;57623;53.608;10.004;2023-02-07T10:33:43;24.40;;;16.70;;
1577;SDS011;57623;53.608;10.004;2023-02-07T10:36:14;24.03;;;16.87;;
1577;SDS011;57623;53.608;10.004;2023-02-07T10:38:48;24.07;;;17.20;;
1577;SDS011;57623;53.608;10.004;2023-02-07T10:41:34;19.40;;;15.30;;
1577;SDS011;57623;53.608;10.004;2023-02-07T10:44:04;24.50;;;17.10;;
1577;SDS011;57623;53.608;10.004;2023-02-07T10:46:33;24.30;;;18.37;;
1577;SDS011;57623;53.608;10.004;2023-02-07T10:49:02;23.87;;;16.80;;
1577;SDS011;57623;53.608;10.004;2023-02-07T10:51:32;25.00;;;17.60;;
1577;SDS011;57623;53.608;10.004;2023-02-07T10:54:04;25.03;;;17.70;;
1577;SDS011;57623;53.608;10.004;2023-02-07T10:56:39;25.50;;;18.00;;
1577;SDS011;57623;53.608;10.004;2023-02-07T11:02:01;20.60;;;15.60;;
1577;SDS011;57623;53.608;10.004;2023-02-07T11:04:33;24.90;;;16.73;;
1577;SDS011;57623;53.608;10.004;2023-02-07T11:07:06;24.60;;;16.60;;
1577;SDS011;57623;53.608;10.004;2023-02-07T11:09:42;22.53;;;17.03;;
1577;SDS011;57623;53.608;10.004;2023-02-07T11:12:13;21.23;;;16.07;;
1577;SDS011;57623;53.608;10.004;2023-02-07T11:14:49;23.87;;;18.07;;
1577;SDS011;57623;53.608;10.004;2023-02-07T11:17:26;26.17;;;19.10;;
1577;SDS011;57623;53.608;10.004;2023-02-07T11:19:55;26.83;;;17.20;;
1577;SDS011;57623;53.608;10.004;2023-02-07T11:22:28;23.10;;;17.13;;
1577;SDS011;57623;53.608;10.004;2023-02-07T11:25:00;25.03;;;17.47;;
1577;SDS011;57623;53.608;10.004;2023-02-07T11:27:33;26.37;;;18.97;;
1577;SDS011;57623;53.608;10.004;2023-02-07T11:30:04;26.40;;;18.33;;
1577;SDS011;57623;53.608;10.004;2023-02-07T11:32:34;26.60;;;18.53;;
1577;SDS011;57623;53.608;10.004;2023-02-07T11:35:04;27.67;;;18.70;;
1577;SDS011;57623;53.608;10.004;2023-02-07T11:37:35;24.27;;;18.60;;
1577;SDS011;57623;53.608;10.004;2023-02-07T11:40:21;24.90;;;19.20;;
1577;SDS011;57623;53.608;10.004;2023-02-07T11:42:56;26.03;;;18.30;;
1577;SDS011;57623;53.608;10.004;2023-02-07T11:45:25;25.83;;;18.50;;
1577;SDS011;57623;53.608;10.004;2023-02-07T11:47:55;23.50;;;17.80;;
1577;SDS011;57623;53.608;10.004;2023-02-07T11:50:24;24.40;;;17.60;;
1577;SDS011;57623;53.608;10.004;2023-02-07T11:52:56;21.80;;;18.60;;
1577;SDS011;57623;53.608;10.004;2023-02-07T11:55:28;25.40;;;18.77;;
1577;SDS011;57623;53.608;10.004;2023-02-07T11:58:00;22.17;;;17.57;;
1577;SDS011;57623;53.608;10.004;2023-02-07T12:00:34;21.83;;;18.10;;
1577;SDS011;57623;53.608;10.004;2023-02-07T12:03:04;19.10;;;17.10;;
1577;SDS011;57623;53.608;10.004;2023-02-07T12:05:36;20.80;;;18.60;;
1577;SDS011;57623;53.608;10.004;2023-02-07T12:08:10;21.90;;;19.60;;
1577;SDS011;57623;53.608;10.004;2023-02-07T12:10:43;21.70;;;19.70;;
1577;SDS011;57623;53.608;10.004;2023-02-07T12:13:15;20.53;;;18.63;;
1577;SDS011;57623;53.608;10.004;2023-02-07T12:15:46;23.07;;;21.07;;
1577;SDS011;57623;53.608;10.004;2023-02-07T12:18:19;24.27;;;22.20;;
1577;SDS011;57623;53.608;10.004;2023-02-07T12:20:54;22.97;;;21.17;;
1577;SDS011;57623;53.608;10.004;2023-02-07T12:23:30;21.73;;;20.13;;
1577;SDS011;57623;53.608;10.004;2023-02-07T12:26:14;22.23;;;20.63;;
1577;SDS011;57623;53.608;10.004;2023-02-07T12:28:49;22.50;;;20.70;;
1577;SDS011;57623;53.608;10.004;2023-02-07T12:31:40;21.30;;;19.80;;
1577;SDS011;57623;53.608;10.004;2023-02-07T12:34:16;21.40;;;19.90;;
1577;SDS011;57623;53.608;10.004;2023-02-07T12:36:49;20.80;;;19.30;;
1577;SDS011;57623;53.608;10.004;2023-02-07T12:39:23;20.50;;;19.10;;
1577;SDS011;57623;53.608;10.004;2023-02-07T12:42:02;22.20;;;20.50;;
1577;SDS011;57623;53.608;10.004;2023-02-07T12:44:37;20.90;;;19.47;;
1577;SDS011;57623;53.608;10.004;2023-02-07T12:47:14;21.50;;;20.10;;
1577;SDS011;57623;53.608;10.004;2023-02-07T12:49:59;20.03;;;18.73;;
1577;SDS011;57623;53.608;10.004;2023-02-07T12:52:38;20.43;;;19.13;;
1577;SDS011;57623;53.608;10.004;2023-02-07T12:55:15;20.73;;;19.43;;
1577;SDS011;57623;53.608;10.004;2023-02-07T12:57:59;20.37;;;18.97;;
1577;SDS011;57623;53.608;10.004;2023-02-07T13:00:46;19.47;;;18.20;;
1577;SDS011;57623;53.608;10.004;2023-02-07T13:03:26;18.53;;;17.33;;
1577;SDS011;57623;53.608;10.004;2023-02-07T13:06:04;20.47;;;19.10;;
1577;SDS011;57623;53.608;10.004;2023-02-07T13:08:47;20.00;;;18.60;;
1577;SDS011;57623;53.608;10.004;2023-02-07T13:11:26;19.73;;;18.53;;
1577;SDS011;57623;53.608;10.004;2023-02-07T13:14:05;20.07;;;18.77;;
1577;SDS011;57623;53.608;10.004;2023-02-07T13:16:43;18.83;;;17.63;;
1577;SDS011;57623;53.608;10.004;2023-02-07T13:19:23;18.30;;;17.10;;
1577;SDS011;57623;53.608;10.004;2023-02-07T13:21:59;19.60;;;18.37;;
1577;SDS011;57623;53.608;10.004;2023-02-07T13:24:32;19.93;;;18.53;;
1577;SDS011;57623;53.608;10.004;2023-02-07T13:27:05;18.90;;;17.70;;
1577;SDS011;57623;53.608;10.004;2023-02-07T13:29:38;20.33;;;18.97;;
1577;SDS011;57623;53.608;10.004;2023-02-07T13:32:09;20.33;;;18.93;;
1577;SDS011;57623;53.608;10.004;2023-02-07T13:34:46;20.77;;;19.37;;
1577;SDS011;57623;53.608;10.004;2023-02-07T13:37:17;20.13;;;18.63;;
1577;SDS011;57623;53.608;10.004;2023-02-07T13:39:52;20.27;;;18.87;;
1577;SDS011;57623;53.608;10.004;2023-02-07T13:42:26;20.87;;;19.30;;
1577;SDS011;57623;53.608;10.004;2023-02-07T13:45:03;20.40;;;19.00;;
1577;SDS011;57623;53.608;10.004;2023-02-07T13:47:43;20.77;;;19.27;;
1577;SDS011;57623;53.608;10.004;2023-02-07T13:50:41;19.23;;;17.83;;
1577;SDS011;57623;53.608;10.004;2023-02-07T13:53:19;19.80;;;18.40;;
1577;SDS011;57623;53.608;10.004;2023-02-07T13:55:58;19.80;;;18.40;;
1577;SDS011;57623;53.608;10.004;2023-02-07T13:58:49;20.27;;;18.80;;
1577;SDS011;57623;53.608;10.004;2023-02-07T14:01:38;18.60;;;17.10;;
1577;SDS011;57623;53.608;10.004;2023-02-07T14:04:17;19.57;;;17.97;;
1577;SDS011;57623;53.608;10.004;2023-02-07T14:06:54;20.63;;;18.93;;
1577;SDS011;57623;53.608;10.004;2023-02-07T14:09:28;20.77;;;19.00;;
1577;SDS011;57623;53.608;10.004;2023-02-07T14:12:02;19.70;;;18.00;;
1577;SDS011;57623;53.608;10.004;2023-02-07T14:14:33;19.43;;;17.70;;
1577;SDS011;57623;53.608;10.004;2023-02-07T14:17:04;20.80;;;18.80;;
1577;SDS011;57623;53.608;10.004;2023-02-07T14:19:52;20.47;;;18.47;;
1577;SDS011;57623;53.608;10.004;2023-02-07T14:22:22;18.93;;;17.00;;
1577;SDS011;57623;53.608;10.004;2023-02-07T14:28:07;19.40;;;17.60;;
1577;SDS011;57623;53.608;10.004;2023-02-07T14:30:58;21.03;;;18.83;;
1577;SDS011;57623;53.608;10.004;2023-02-07T14:33:31;20.40;;;17.93;;
1577;SDS011;57623;53.608;10.004;2023-02-07T14:36:01;21.17;;;18.97;;
1577;SDS011;57623;53.608;10.004;2023-02-07T14:38:34;20.20;;;18.00;;
1577;SDS011;57623;53.608;10.004;2023-02-07T14:41:05;20.60;;;18.40;;
1577;SDS011;57623;53.608;10.004;2023-02-07T14:43:47;20.30;;;18.07;;
1577;SDS011;57623;53.608;10.004;2023-02-07T14:46:33;23.90;;;18.93;;
1577;SDS011;57623;53.608;10.004;2023-02-07T14:49:05;31.30;;;18.83;;
1577;SDS011;57623;53.608;10.004;2023-02-07T14:51:41;22.73;;;18.30;;
1577;SDS011;57623;53.608;10.004;2023-02-07T14:54:14;20.37;;;17.70;;
1577;SDS011;57623;53.608;10.004;2023-02-07T14:56:50;20.70;;;16.63;;
1577;SDS011;57623;53.608;10.004;2023-02-07T14:59:27;23.07;;;17.27;;
1577;SDS011;57623;53.608;10.004;2023-02-07T15:04:54;20.70;;;16.50;;
1577;SDS011;57623;53.608;10.004;2023-02-07T15:07:22;22.97;;;17.90;;
1577;SDS011;57623;53.608;10.004;2023-02-07T15:09:50;20.90;;;16.50;;
1577;SDS011;57623;53.608;10.004;2023-02-07T15:12:21;21.20;;;17.77;;
1577;SDS011;57623;53.608;10.004;2023-02-07T15:14:53;21.43;;;17.17;;